Emslake — V2FL4 — position and weather

sailwx.info

Track history (hours):
 
Tides and Currents Weather Stations Pressure Air Temp Water Temp Dewpoint Dewpoint Depression Visibility Wind Speed Wind Dir Waves Ship Positions

Emslake

Last reported at 2016-Apr-29 09:33 UTC. Time now 2016-Apr-29 10:08 UTC.
Position N 55°26' E 014°49'.

Length 100 m; draft 3.9 m.

Type: Cargo ship. MMSI: 305712000.

Date/timePositionNaut miles runAvg speedWind from/ knotsBaromVisibWave heightAir tempDewpointWater temp
2016-Apr-29 09:33N 55°26' E 014°49'9 9.1
2016-Apr-29 08:33N 55°21' E 014°36'9 8.8
2016-Apr-29 07:33N 55°15' E 014°25'8 8.1
2016-Apr-29 06:33N 55°11' E 014°13'8 8.2
2016-Apr-29 05:34N 55°11' E 013°59'8 8.1
2016-Apr-29 04:33N 55°12' E 013°45'8 8.4
2016-Apr-29 03:34N 55°13' E 013°30'9 8.7
2016-Apr-29 02:34N 55°14' E 013°15'9 8.9
2016-Apr-29 01:34N 55°15' E 012°59'9 8.9
2016-Apr-29 00:34N 55°17' E 012°44'7 6.8
2016-Apr-28 23:34N 55°23' E 012°39'8 8.3
2016-Apr-28 22:34N 55°31' E 012°42'9 9.1
2016-Apr-28 21:34N 55°40' E 012°41'1010.0
2016-Apr-28 20:34N 55°50' E 012°40'10 9.9
2016-Apr-28 19:34N 56°00' E 012°38'7 7.2
2016-Apr-28 18:34N 56°06' E 012°32'8 8.3
2016-Apr-28 17:34N 56°11' E 012°20'8 8.1
2016-Apr-28 16:33N 56°16' E 012°08'18 8.0
2016-Apr-28 14:21N 56°33' E 011°57'7 8.7
2016-Apr-28 13:34N 56°39' E 011°54'9 8.8
2016-Apr-28 12:34N 56°48' E 011°50'9 8.7
2016-Apr-28 11:29N 56°56' E 011°44'8 8.7
2016-Apr-28 10:34N 57°04' E 011°40'9 8.5
2016-Apr-28 09:33N 57°12' E 011°35'9 8.5
2016-Apr-28 08:34N 57°21' E 011°37'9 8.7
2016-Apr-28 07:34N 57°29' E 011°37'6 6.3
2016-Apr-28 06:32N 57°36' E 011°40'0 0.0
2016-Apr-28 05:32N 57°36' E 011°40'2 2.0
2016-Apr-28 04:34N 57°35' E 011°37'1111.1
2016-Apr-28 03:34N 57°44' E 011°24'1010.1
2016-Apr-28 02:34N 57°53' E 011°14'10 9.6
2016-Apr-28 01:34N 58°00' E 011°03'9 8.9
2016-Apr-28 00:34N 58°07' E 010°53'9 9.1
2016-Apr-27 23:34N 58°15' E 010°43'9 9.2
2016-Apr-27 22:34N 58°23' E 010°33'9 9.4
2016-Apr-27 21:34N 58°30' E 010°23'9 9.4
2016-Apr-27 20:34N 58°38' E 010°13'9 9.4
2016-Apr-27 19:34N 58°46' E 010°02'10 9.5
2016-Apr-27 18:34N 58°54' E 009°52'10 9.2
2016-Apr-27 17:29N 59°02' E 009°43'5 0.2
2016-Apr-26 10:12N 59°06' E 009°38'1 0.0
2016-Apr-24 19:28N 59°06' E 009°37'9 8.5
2016-Apr-24 18:27N 58°59' E 009°47'9 9.8
2016-Apr-24 17:33N 58°51' E 009°54'1010.3
2016-Apr-24 16:33N 58°42' E 010°05'3010.1
2016-Apr-24 13:34N 58°16' E 010°34'1010.3
2016-Apr-24 12:34N 58°07' E 010°43'1010.1
2016-Apr-24 11:34N 57°58' E 010°53'1010.2
2016-Apr-24 10:33N 57°50' E 011°03'1010.2
2016-Apr-24 09:33N 57°41' E 011°12'10 9.7
2016-Apr-24 08:33N 57°32' E 011°21'9 9.4
2016-Apr-24 07:33N 57°24' E 011°29'9 9.4
2016-Apr-24 06:33N 57°15' E 011°35'10 9.9
2016-Apr-24 05:33N 57°06' E 011°41'1010.0
2016-Apr-24 04:33N 56°56' E 011°48'1010.0
2016-Apr-24 03:33N 56°47' E 011°54'1010.0
2016-Apr-24 02:33N 56°37' E 011°58'2010.1
2016-Apr-24 00:33N 56°18' E 012°08'10 9.9
2016-Apr-23 23:34N 56°12' E 012°22'1010.0
2016-Apr-23 22:33N 56°05' E 012°36'10 9.5
2016-Apr-23 21:34N 55°57' E 012°43'10 9.7
2016-Apr-23 20:34N 55°47' E 012°43'1010.1
2016-Apr-23 19:34N 55°37' E 012°42'10 9.8
2016-Apr-23 18:34N 55°27' E 012°43'9 9.1
2016-Apr-23 17:34N 55°18' E 012°44'10 9.7
2016-Apr-23 16:34N 55°16' E 013°00'10 9.9
2016-Apr-23 15:34N 55°15' E 013°18'10 9.7
2016-Apr-23 14:34N 55°14' E 013°35'1010.2
2016-Apr-23 13:34N 55°14' E 013°52'1010.4
2016-Apr-23 12:34N 55°13' E 014°11'1010.1
2016-Apr-23 11:33N 55°19' E 014°25'1010.4
2016-Apr-23 10:33N 55°27' E 014°38'1010.2
2016-Apr-23 09:33N 55°32' E 014°53'1010.0
2016-Apr-23 08:33N 55°37' E 015°09'1010.0
2016-Apr-23 07:33N 55°42' E 015°24'1010.2
2016-Apr-23 06:33N 55°47' E 015°39'1110.4
2016-Apr-23 05:31N 55°53' E 015°56'  
Track history (hours):
 
Tides and Currents Weather Stations Pressure Air Temp Water Temp Dewpoint Dewpoint Depression Visibility Wind Speed Wind Dir Waves Ship Positions

Emslake

Last reported at 2016-Apr-29 09:33 UTC. Time now 2016-Apr-29 10:08 UTC.
Position N 55°26' E 014°49'.

Length 100 m; draft 3.9 m.

Type: Cargo ship. MMSI: 305712000.

Date/timePositionNaut miles runAvg speedWind from/ knotsBaromVisibWave heightAir tempDewpointWater temp
2016-Apr-29 09:33N 55°26' E 014°49'9 9.1
2016-Apr-29 08:33N 55°21' E 014°36'9 8.8
2016-Apr-29 07:33N 55°15' E 014°25'8 8.1
2016-Apr-29 06:33N 55°11' E 014°13'8 8.2
2016-Apr-29 05:34N 55°11' E 013°59'8 8.1
2016-Apr-29 04:33N 55°12' E 013°45'8 8.4
2016-Apr-29 03:34N 55°13' E 013°30'9 8.7
2016-Apr-29 02:34N 55°14' E 013°15'9 8.9
2016-Apr-29 01:34N 55°15' E 012°59'9 8.9
2016-Apr-29 00:34N 55°17' E 012°44'7 6.8
2016-Apr-28 23:34N 55°23' E 012°39'8 8.3
2016-Apr-28 22:34N 55°31' E 012°42'9 9.1
2016-Apr-28 21:34N 55°40' E 012°41'1010.0
2016-Apr-28 20:34N 55°50' E 012°40'10 9.9
2016-Apr-28 19:34N 56°00' E 012°38'7 7.2
2016-Apr-28 18:34N 56°06' E 012°32'8 8.3
2016-Apr-28 17:34N 56°11' E 012°20'8 8.1
2016-Apr-28 16:33N 56°16' E 012°08'18 8.0
2016-Apr-28 14:21N 56°33' E 011°57'7 8.7
2016-Apr-28 13:34N 56°39' E 011°54'9 8.8
2016-Apr-28 12:34N 56°48' E 011°50'9 8.7
2016-Apr-28 11:29N 56°56' E 011°44'8 8.7
2016-Apr-28 10:34N 57°04' E 011°40'9 8.5
2016-Apr-28 09:33N 57°12' E 011°35'9 8.5
2016-Apr-28 08:34N 57°21' E 011°37'9 8.7
2016-Apr-28 07:34N 57°29' E 011°37'6 6.3
2016-Apr-28 06:32N 57°36' E 011°40'0 0.0
2016-Apr-28 05:32N 57°36' E 011°40'2 2.0
2016-Apr-28 04:34N 57°35' E 011°37'1111.1
2016-Apr-28 03:34N 57°44' E 011°24'1010.1
2016-Apr-28 02:34N 57°53' E 011°14'10 9.6
2016-Apr-28 01:34N 58°00' E 011°03'9 8.9
2016-Apr-28 00:34N 58°07' E 010°53'9 9.1
2016-Apr-27 23:34N 58°15' E 010°43'9 9.2
2016-Apr-27 22:34N 58°23' E 010°33'9 9.4
2016-Apr-27 21:34N 58°30' E 010°23'9 9.4
2016-Apr-27 20:34N 58°38' E 010°13'9 9.4
2016-Apr-27 19:34N 58°46' E 010°02'10 9.5
2016-Apr-27 18:34N 58°54' E 009°52'10 9.2
2016-Apr-27 17:29N 59°02' E 009°43'5 0.2
2016-Apr-26 10:12N 59°06' E 009°38'1 0.0
2016-Apr-24 19:28N 59°06' E 009°37'9 8.5
2016-Apr-24 18:27N 58°59' E 009°47'9 9.8
2016-Apr-24 17:33N 58°51' E 009°54'1010.3
2016-Apr-24 16:33N 58°42' E 010°05'3010.1
2016-Apr-24 13:34N 58°16' E 010°34'1010.3
2016-Apr-24 12:34N 58°07' E 010°43'1010.1
2016-Apr-24 11:34N 57°58' E 010°53'1010.2
2016-Apr-24 10:33N 57°50' E 011°03'1010.2
2016-Apr-24 09:33N 57°41' E 011°12'10 9.7
2016-Apr-24 08:33N 57°32' E 011°21'9 9.4
2016-Apr-24 07:33N 57°24' E 011°29'9 9.4
2016-Apr-24 06:33N 57°15' E 011°35'10 9.9
2016-Apr-24 05:33N 57°06' E 011°41'1010.0
2016-Apr-24 04:33N 56°56' E 011°48'1010.0
2016-Apr-24 03:33N 56°47' E 011°54'1010.0
2016-Apr-24 02:33N 56°37' E 011°58'2010.1
2016-Apr-24 00:33N 56°18' E 012°08'10 9.9
2016-Apr-23 23:34N 56°12' E 012°22'1010.0
2016-Apr-23 22:33N 56°05' E 012°36'10 9.5
2016-Apr-23 21:34N 55°57' E 012°43'10 9.7
2016-Apr-23 20:34N 55°47' E 012°43'1010.1
2016-Apr-23 19:34N 55°37' E 012°42'10 9.8
2016-Apr-23 18:34N 55°27' E 012°43'9 9.1
2016-Apr-23 17:34N 55°18' E 012°44'10 9.7
2016-Apr-23 16:34N 55°16' E 013°00'10 9.9
2016-Apr-23 15:34N 55°15' E 013°18'10 9.7
2016-Apr-23 14:34N 55°14' E 013°35'1010.2
2016-Apr-23 13:34N 55°14' E 013°52'1010.4
2016-Apr-23 12:34N 55°13' E 014°11'1010.1
2016-Apr-23 11:33N 55°19' E 014°25'1010.4
2016-Apr-23 10:33N 55°27' E 014°38'1010.2
2016-Apr-23 09:33N 55°32' E 014°53'1010.0
2016-Apr-23 08:33N 55°37' E 015°09'1010.0
2016-Apr-23 07:33N 55°42' E 015°24'1010.2
2016-Apr-23 06:33N 55°47' E 015°39'1110.4
2016-Apr-23 05:31N 55°53' E 015°56'  

Dump ship's entire track history